sensor_id;sensor_type;location;lat;lon;timestamp;temperature;humidity
16968;DHT22;64862;54.398;10.126;2023-04-24T00:02:45;13.10;99.90
16968;DHT22;64862;54.398;10.126;2023-04-24T00:12:50;13.30;99.90
16968;DHT22;64862;54.398;10.126;2023-04-24T00:22:52;13.30;99.90
16968;DHT22;64862;54.398;10.126;2023-04-24T00:32:56;13.10;99.90
16968;DHT22;64862;54.398;10.126;2023-04-24T00:42:58;13.10;99.90
16968;DHT22;64862;54.398;10.126;2023-04-24T00:53:02;13.20;99.90
16968;DHT22;64862;54.398;10.126;2023-04-24T01:03:05;13.10;99.90
16968;DHT22;64862;54.398;10.126;2023-04-24T01:13:09;13.00;99.90
16968;DHT22;64862;54.398;10.126;2023-04-24T01:23:13;12.60;99.90
16968;DHT22;64862;54.398;10.126;2023-04-24T01:33:16;12.20;99.90
16968;DHT22;64862;54.398;10.126;2023-04-24T01:43:19;12.10;99.90
16968;DHT22;64862;54.398;10.126;2023-04-24T01:53:22;12.00;99.90
16968;DHT22;64862;54.398;10.126;2023-04-24T02:03:27;12.00;99.90
16968;DHT22;64862;54.398;10.126;2023-04-24T02:13:31;11.90;99.90
16968;DHT22;64862;54.398;10.126;2023-04-24T02:23:37;11.90;99.90
16968;DHT22;64862;54.398;10.126;2023-04-24T02:33:40;11.80;99.90
16968;DHT22;64862;54.398;10.126;2023-04-24T02:43:43;11.70;99.90
16968;DHT22;64862;54.398;10.126;2023-04-24T02:53:46;11.80;99.90
16968;DHT22;64862;54.398;10.126;2023-04-24T03:03:49;11.80;99.90
16968;DHT22;64862;54.398;10.126;2023-04-24T03:13:52;11.80;99.90
16968;DHT22;64862;54.398;10.126;2023-04-24T03:23:55;11.80;99.90
16968;DHT22;64862;54.398;10.126;2023-04-24T03:33:58;11.70;99.90
16968;DHT22;64862;54.398;10.126;2023-04-24T03:44:02;11.80;99.90
16968;DHT22;64862;54.398;10.126;2023-04-24T03:54:05;11.80;99.90
16968;DHT22;64862;54.398;10.126;2023-04-24T04:04:11;11.70;99.90
16968;DHT22;64862;54.398;10.126;2023-04-24T04:14:14;11.60;99.90
16968;DHT22;64862;54.398;10.126;2023-04-24T04:24:22;11.50;99.90
16968;DHT22;64862;54.398;10.126;2023-04-24T04:34:26;11.50;99.90
16968;DHT22;64862;54.398;10.126;2023-04-24T04:44:32;11.70;99.90
16968;DHT22;64862;54.398;10.126;2023-04-24T04:54:37;11.70;99.90
16968;DHT22;64862;54.398;10.126;2023-04-24T05:04:41;11.70;99.90
16968;DHT22;64862;54.398;10.126;2023-04-24T05:14:44;11.80;99.90
16968;DHT22;64862;54.398;10.126;2023-04-24T05:24:48;12.00;99.90
16968;DHT22;64862;54.398;10.126;2023-04-24T05:35:16;12.10;99.90
16968;DHT22;64862;54.398;10.126;2023-04-24T05:45:25;12.20;99.90
16968;DHT22;64862;54.398;10.126;2023-04-24T05:55:30;12.50;99.90
16968;DHT22;64862;54.398;10.126;2023-04-24T06:05:38;12.70;99.90
16968;DHT22;64862;54.398;10.126;2023-04-24T06:15:41;13.00;99.90
16968;DHT22;64862;54.398;10.126;2023-04-24T06:25:50;13.50;99.90
16968;DHT22;64862;54.398;10.126;2023-04-24T06:35:52;13.40;99.90
16968;DHT22;64862;54.398;10.126;2023-04-24T06:45:57;13.40;99.90
16968;DHT22;64862;54.398;10.126;2023-04-24T06:55:59;13.20;99.90
16968;DHT22;64862;54.398;10.126;2023-04-24T07:06:04;13.20;99.90
16968;DHT22;64862;54.398;10.126;2023-04-24T07:16:06;13.20;99.90
16968;DHT22;64862;54.398;10.126;2023-04-24T07:26:12;13.20;99.90
16968;DHT22;64862;54.398;10.126;2023-04-24T07:36:15;13.50;99.90
16968;DHT22;64862;54.398;10.126;2023-04-24T07:46:21;13.50;99.90
16968;DHT22;64862;54.398;10.126;2023-04-24T07:56:23;13.70;99.90
16968;DHT22;64862;54.398;10.126;2023-04-24T08:06:27;13.60;99.90
16968;DHT22;64862;54.398;10.126;2023-04-24T08:16:32;13.50;99.90
16968;DHT22;64862;54.398;10.126;2023-04-24T08:26:36;13.40;99.90
16968;DHT22;64862;54.398;10.126;2023-04-24T08:36:38;13.40;99.90
16968;DHT22;64862;54.398;10.126;2023-04-24T08:46:43;13.20;99.90
16968;DHT22;64862;54.398;10.126;2023-04-24T08:56:48;13.30;99.90
16968;DHT22;64862;54.398;10.126;2023-04-24T09:06:52;13.50;99.90
16968;DHT22;64862;54.398;10.126;2023-04-24T09:16:58;13.80;99.90
16968;DHT22;64862;54.398;10.126;2023-04-24T09:27:04;13.90;99.90
16968;DHT22;64862;54.398;10.126;2023-04-24T09:37:07;14.00;99.90
16968;DHT22;64862;54.398;10.126;2023-04-24T09:47:11;14.10;99.90
16968;DHT22;64862;54.398;10.126;2023-04-24T09:57:14;13.70;99.90
16968;DHT22;64862;54.398;10.126;2023-04-24T10:07:18;13.70;99.90
16968;DHT22;64862;54.398;10.126;2023-04-24T10:17:21;14.40;99.90
16968;DHT22;64862;54.398;10.126;2023-04-24T10:27:26;15.80;99.90
16968;DHT22;64862;54.398;10.126;2023-04-24T10:37:36;15.40;99.90
16968;DHT22;64862;54.398;10.126;2023-04-24T10:47:50;16.50;99.90
16968;DHT22;64862;54.398;10.126;2023-04-24T10:58:02;15.70;99.90
16968;DHT22;64862;54.398;10.126;2023-04-24T11:08:14;15.00;99.90
16968;DHT22;64862;54.398;10.126;2023-04-24T11:18:16;15.20;99.90
16968;DHT22;64862;54.398;10.126;2023-04-24T11:28:20;16.00;99.90
16968;DHT22;64862;54.398;10.126;2023-04-24T11:38:26;16.30;99.90
16968;DHT22;64862;54.398;10.126;2023-04-24T11:48:34;15.80;99.90
16968;DHT22;64862;54.398;10.126;2023-04-24T11:58:40;15.60;99.90
16968;DHT22;64862;54.398;10.126;2023-04-24T12:08:46;14.80;99.90
16968;DHT22;64862;54.398;10.126;2023-04-24T12:18:50;14.50;99.90
16968;DHT22;64862;54.398;10.126;2023-04-24T12:28:54;14.70;99.90
16968;DHT22;64862;54.398;10.126;2023-04-24T12:38:57;15.00;99.90
16968;DHT22;64862;54.398;10.126;2023-04-24T12:49:01;15.80;99.90
16968;DHT22;64862;54.398;10.126;2023-04-24T12:59:04;16.10;99.90
16968;DHT22;64862;54.398;10.126;2023-04-24T13:09:07;15.90;99.90
16968;DHT22;64862;54.398;10.126;2023-04-24T13:19:10;16.10;99.90
16968;DHT22;64862;54.398;10.126;2023-04-24T13:29:14;16.00;99.90
16968;DHT22;64862;54.398;10.126;2023-04-24T13:39:16;15.50;99.90
16968;DHT22;64862;54.398;10.126;2023-04-24T13:49:21;15.00;99.90
16968;DHT22;64862;54.398;10.126;2023-04-24T13:59:26;14.00;99.90
16968;DHT22;64862;54.398;10.126;2023-04-24T14:09:30;13.80;99.90
16968;DHT22;64862;54.398;10.126;2023-04-24T14:19:32;13.80;99.90
16968;DHT22;64862;54.398;10.126;2023-04-24T14:29:36;14.00;99.90
16968;DHT22;64862;54.398;10.126;2023-04-24T14:39:38;14.10;99.90
16968;DHT22;64862;54.398;10.126;2023-04-24T14:49:42;13.80;99.90
16968;DHT22;64862;54.398;10.126;2023-04-24T14:59:45;13.80;99.90
16968;DHT22;64862;54.398;10.126;2023-04-24T15:09:49;13.50;99.90
16968;DHT22;64862;54.398;10.126;2023-04-24T15:19:51;13.60;99.90
16968;DHT22;64862;54.398;10.126;2023-04-24T15:29:54;13.50;99.90
16968;DHT22;64862;54.398;10.126;2023-04-24T15:39:58;13.50;99.90
16968;DHT22;64862;54.398;10.126;2023-04-24T15:50:03;13.40;99.90
16968;DHT22;64862;54.398;10.126;2023-04-24T16:00:07;13.30;99.90
16968;DHT22;64862;54.398;10.126;2023-04-24T16:10:13;13.00;99.90
16968;DHT22;64862;54.398;10.126;2023-04-24T16:20:16;12.60;99.90
16968;DHT22;64862;54.398;10.126;2023-04-24T16:30:21;12.00;99.90
16968;DHT22;64862;54.398;10.126;2023-04-24T16:40:23;11.30;99.90
16968;DHT22;64862;54.398;10.126;2023-04-24T16:50:27;11.00;99.90
16968;DHT22;64862;54.398;10.126;2023-04-24T17:00:31;10.80;99.90
16968;DHT22;64862;54.398;10.126;2023-04-24T17:10:34;10.90;99.90
16968;DHT22;64862;54.398;10.126;2023-04-24T17:20:36;10.50;99.90
16968;DHT22;64862;54.398;10.126;2023-04-24T17:30:40;10.10;99.90
16968;DHT22;64862;54.398;10.126;2023-04-24T17:40:43;10.00;99.90
16968;DHT22;64862;54.398;10.126;2023-04-24T17:50:47;9.60;99.90
16968;DHT22;64862;54.398;10.126;2023-04-24T18:00:50;9.50;99.90
16968;DHT22;64862;54.398;10.126;2023-04-24T18:10:53;9.20;99.90
16968;DHT22;64862;54.398;10.126;2023-04-24T18:20:55;9.10;99.90
16968;DHT22;64862;54.398;10.126;2023-04-24T18:31:00;8.90;99.90
16968;DHT22;64862;54.398;10.126;2023-04-24T18:41:03;8.90;99.90
16968;DHT22;64862;54.398;10.126;2023-04-24T18:51:06;8.80;99.90
16968;DHT22;64862;54.398;10.126;2023-04-24T19:01:09;8.80;99.90
16968;DHT22;64862;54.398;10.126;2023-04-24T19:11:16;8.80;99.90
16968;DHT22;64862;54.398;10.126;2023-04-24T19:21:18;8.90;99.90
16968;DHT22;64862;54.398;10.126;2023-04-24T19:31:22;8.90;99.90
16968;DHT22;64862;54.398;10.126;2023-04-24T19:41:24;9.10;99.90
16968;DHT22;64862;54.398;10.126;2023-04-24T19:51:28;9.10;99.90
16968;DHT22;64862;54.398;10.126;2023-04-24T20:01:32;9.10;99.90
16968;DHT22;64862;54.398;10.126;2023-04-24T20:11:35;9.00;99.90
16968;DHT22;64862;54.398;10.126;2023-04-24T20:21:37;9.00;99.90
16968;DHT22;64862;54.398;10.126;2023-04-24T20:31:41;9.00;99.90
16968;DHT22;64862;54.398;10.126;2023-04-24T20:41:43;9.10;99.90
16968;DHT22;64862;54.398;10.126;2023-04-24T20:51:47;9.00;99.90
16968;DHT22;64862;54.398;10.126;2023-04-24T21:01:49;9.10;99.90
16968;DHT22;64862;54.398;10.126;2023-04-24T21:11:53;9.20;99.90
16968;DHT22;64862;54.398;10.126;2023-04-24T21:21:55;9.30;99.90
16968;DHT22;64862;54.398;10.126;2023-04-24T21:31:59;9.40;99.90
16968;DHT22;64862;54.398;10.126;2023-04-24T21:42:04;9.20;99.90
16968;DHT22;64862;54.398;10.126;2023-04-24T21:52:07;9.30;99.90
16968;DHT22;64862;54.398;10.126;2023-04-24T22:02:10;9.20;99.90
16968;DHT22;64862;54.398;10.126;2023-04-24T22:12:13;9.10;99.90
16968;DHT22;64862;54.398;10.126;2023-04-24T22:22:19;9.10;99.90
16968;DHT22;64862;54.398;10.126;2023-04-24T22:32:23;9.00;99.90
16968;DHT22;64862;54.398;10.126;2023-04-24T22:42:25;9.00;99.90
16968;DHT22;64862;54.398;10.126;2023-04-24T22:52:29;9.00;99.90
16968;DHT22;64862;54.398;10.126;2023-04-24T23:02:36;9.00;99.90
16968;DHT22;64862;54.398;10.126;2023-04-24T23:12:40;8.80;99.90
16968;DHT22;64862;54.398;10.126;2023-04-24T23:22:44;8.70;99.90
16968;DHT22;64862;54.398;10.126;2023-04-24T23:32:49;8.60;99.90
16968;DHT22;64862;54.398;10.126;2023-04-24T23:42:52;8.60;99.90
16968;DHT22;64862;54.398;10.126;2023-04-24T23:52:56;8.60;99.90
